Time;durP1;ratioP1;P1;durP2;ratioP2;P2;SDS_P1;SDS_P2;PMS_P1;PMS_P2;Temp;Humidity;BMP_temperature;BMP_pressure;BME280_temperature;BME280_humidity;BME280_pressure;Samples;Min_cycle;Max_cycle;Signal;HPM_P1;HPM_P2
2022/11/20 00:01:46;;;;;;;8.25;7.00;;;20.80;63.50;;;;;;5013612;28;87436;-79
2022/11/20 00:04:12;;;;;;;9.18;6.68;;;20.70;63.20;;;;;;5014194;28;86472;-79
2022/11/20 00:06:38;;;;;;;7.53;6.60;;;20.70;63.40;;;;;;5018607;27;88413;-80
2022/11/20 00:09:05;;;;;;;7.60;6.60;;;20.70;63.20;;;;;;5014942;28;88129;-79
2022/11/20 00:11:31;;;;;;;9.05;6.93;;;20.70;64.00;;;;;;5010573;28;88347;-80
2022/11/20 00:13:59;;;;;;;8.25;6.45;;;20.70;63.20;;;;;;5014113;28;87287;-79
2022/11/20 00:16:27;;;;;;;9.93;7.32;;;20.70;63.30;;;;;;5014613;28;89531;-79
2022/11/20 00:18:53;;;;;;;8.00;6.47;;;20.70;63.30;;;;;;5013843;28;87549;-80
2022/11/20 00:21:21;;;;;;;9.55;7.03;;;20.60;63.40;;;;;;5016161;27;87840;-79
2022/11/20 00:23:48;;;;;;;8.82;7.10;;;20.60;63.20;;;;;;5015021;28;87580;-79
2022/11/20 00:26:15;;;;;;;9.25;6.65;;;20.60;64.10;;;;;;4993799;28;90174;-79
2022/11/20 00:28:42;;;;;;;8.38;6.30;;;20.60;63.30;;;;;;5015542;28;87135;-80
2022/11/20 00:31:13;;;;;;;7.40;6.20;;;20.60;63.30;;;;;;5013207;28;87489;-79
2022/11/20 00:33:39;;;;;;;7.95;6.40;;;20.60;63.30;;;;;;5010426;28;87429;-79
2022/11/20 00:36:07;;;;;;;8.80;6.50;;;20.50;63.30;;;;;;5012900;27;88880;-80
2022/11/20 00:38:34;;;;;;;7.32;6.35;;;20.50;63.30;;;;;;5014208;28;88208;-79
2022/11/20 00:41:01;;;;;;;7.15;6.45;;;20.50;63.40;;;;;;5012925;28;88307;-79
2022/11/20 00:43:28;;;;;;;8.63;6.07;;;20.50;63.30;;;;;;5014902;28;87382;-80
2022/11/20 00:45:58;;;;;;;7.10;6.28;;;20.50;63.40;;;;;;5015435;28;88345;-79
2022/11/20 00:48:24;;;;;;;10.85;7.00;;;20.50;63.00;;;;;;5016102;28;88756;-80
2022/11/20 00:50:49;;;;;;;7.70;6.72;;;20.50;63.10;;;;;;5016287;28;87416;-79
2022/11/20 00:53:15;;;;;;;8.55;6.32;;;20.40;63.10;;;;;;5014586;27;86723;-79
2022/11/20 00:55:40;;;;;;;8.05;6.70;;;20.40;63.00;;;;;;5013026;27;89070;-80
2022/11/20 00:58:06;;;;;;;6.50;5.78;;;20.40;63.20;;;;;;5014616;27;88067;-79
2022/11/20 01:00:32;;;;;;;6.70;5.88;;;20.40;63.20;;;;;;5014235;28;88104;-79
2022/11/20 01:02:57;;;;;;;8.55;6.80;;;20.40;63.30;;;;;;5016785;27;87370;-79
2022/11/20 01:05:23;;;;;;;7.60;6.72;;;20.40;63.20;;;;;;5030801;27;87869;-79
2022/11/20 01:07:48;;;;;;;7.57;6.30;;;20.30;63.40;;;;;;5022881;27;88240;-79
2022/11/20 01:10:14;;;;;;;7.38;6.45;;;20.30;63.30;;;;;;5019446;27;87442;-79
2022/11/20 01:12:40;;;;;;;7.78;6.55;;;20.30;63.30;;;;;;5013494;27;90305;-80
2022/11/20 01:15:05;;;;;;;8.38;6.60;;;20.30;63.30;;;;;;5035058;27;87975;-79
2022/11/20 01:17:32;;;;;;;8.23;6.47;;;20.30;63.20;;;;;;5032954;27;88123;-79
2022/11/20 01:19:57;;;;;;;7.00;6.30;;;20.30;63.40;;;;;;5032128;27;87384;-79
2022/11/20 01:22:23;;;;;;;9.40;6.85;;;20.30;63.40;;;;;;5033839;27;87397;-79
2022/11/20 01:24:48;;;;;;;8.27;6.28;;;20.30;63.40;;;;;;5034152;27;89185;-79
2022/11/20 01:27:14;;;;;;;7.15;5.97;;;20.30;63.10;;;;;;5031438;27;89286;-79
2022/11/20 01:29:40;;;;;;;6.70;5.88;;;20.20;63.30;;;;;;5033010;27;87690;-79
2022/11/20 01:32:05;;;;;;;7.63;6.35;;;20.30;63.50;;;;;;5030612;27;87212;-79
2022/11/20 01:34:31;;;;;;;7.07;6.38;;;20.30;63.40;;;;;;5033833;27;87096;-79
2022/11/20 01:36:56;;;;;;;6.70;6.00;;;20.20;63.30;;;;;;5033753;27;87460;-79
2022/11/20 01:39:25;;;;;;;6.55;5.93;;;20.20;63.50;;;;;;5036775;27;87869;-79
2022/11/20 01:44:58;;;;;;;6.72;5.93;;;20.20;63.60;;;;;;5031041;27;87272;-79
2022/11/20 01:47:34;;;;;;;7.65;6.28;;;20.20;63.30;;;;;;5014249;27;88098;-79
2022/11/20 01:50:04;;;;;;;6.32;5.70;;;20.20;63.50;;;;;;5017262;27;88234;-79
2022/11/20 01:52:51;;;;;;;6.75;5.90;;;20.10;63.30;;;;;;5013188;28;88324;-79
2022/11/20 01:55:25;;;;;;;7.07;6.28;;;20.20;63.50;;;;;;5014686;28;88170;-80
2022/11/20 01:57:51;;;;;;;7.15;6.45;;;20.10;63.40;;;;;;5017575;28;87975;-79
2022/11/20 02:00:19;;;;;;;7.10;5.57;;;20.10;63.40;;;;;;5017142;27;87600;-79
2022/11/20 02:02:51;;;;;;;7.93;6.68;;;20.10;63.30;;;;;;5018169;28;89458;-79
2022/11/20 02:05:36;;;;;;;7.05;5.72;;;20.10;63.40;;;;;;5015957;28;88921;-79
2022/11/20 02:08:04;;;;;;;8.02;6.28;;;20.10;63.40;;;;;;5014816;28;88082;-79
2022/11/20 02:10:29;;;;;;;7.10;6.40;;;20.10;63.50;;;;;;5013801;28;87415;-79
2022/11/20 02:15:40;;;;;;;8.35;6.53;;;20.10;63.50;;;;;;5011929;28;88604;-79
2022/11/20 02:18:06;;;;;;;6.40;5.75;;;20.10;63.50;;;;;;5017966;28;88808;-80
2022/11/20 02:20:32;;;;;;;6.95;6.00;;;20.00;63.40;;;;;;5015993;28;87339;-79
2022/11/20 02:23:11;;;;;;;9.50;6.18;;;20.10;63.60;;;;;;5016761;28;87290;-80
2022/11/20 02:25:37;;;;;;;7.00;5.90;;;20.00;63.60;;;;;;5015382;28;89060;-80
2022/11/20 02:28:04;;;;;;;6.80;6.13;;;20.00;64.40;;;;;;5013973;28;88407;-80
2022/11/20 02:30:30;;;;;;;6.80;5.78;;;20.00;63.60;;;;;;5014339;28;86942;-80
2022/11/20 02:32:55;;;;;;;6.97;5.90;;;20.00;63.50;;;;;;4997526;28;90167;-80
2022/11/20 02:35:21;;;;;;;7.32;5.70;;;20.00;63.40;;;;;;5015029;28;88031;-81
2022/11/20 02:37:54;;;;;;;6.93;5.72;;;20.00;63.60;;;;;;5015694;28;87318;-80
2022/11/20 02:40:21;;;;;;;7.38;6.40;;;20.00;63.70;;;;;;5013891;28;88680;-81
2022/11/20 02:42:47;;;;;;;7.13;5.53;;;19.90;63.50;;;;;;5015064;27;87268;-81
2022/11/20 02:45:13;;;;;;;6.90;6.05;;;19.90;63.50;;;;;;5018541;28;88649;-80
2022/11/20 02:47:39;;;;;;;8.13;6.43;;;19.90;63.50;;;;;;5017913;28;87394;-81
2022/11/20 02:50:06;;;;;;;6.65;5.90;;;19.90;63.50;;;;;;5014269;28;87778;-80
2022/11/20 02:52:32;;;;;;;6.78;5.88;;;19.90;63.50;;;;;;5015177;28;87381;-80
2022/11/20 02:54:57;;;;;;;7.38;6.32;;;19.90;63.60;;;;;;5015649;28;88044;-80
2022/11/20 02:57:23;;;;;;;5.88;5.28;;;19.90;63.50;;;;;;5016292;27;87602;-81
2022/11/20 02:59:48;;;;;;;6.53;5.93;;;19.90;63.40;;;;;;5016833;28;87951;-80
2022/11/20 03:02:14;;;;;;;6.45;5.75;;;19.90;63.60;;;;;;5012760;28;87442;-80
2022/11/20 03:04:40;;;;;;;7.13;6.10;;;19.90;63.60;;;;;;5013445;28;88345;-80
2022/11/20 03:07:05;;;;;;;7.30;6.03;;;19.90;63.60;;;;;;5015445;28;88892;-80
2022/11/20 03:09:31;;;;;;;6.28;5.68;;;19.90;63.50;;;;;;5013535;27;87511;-80
2022/11/20 03:11:56;;;;;;;6.88;6.13;;;19.80;63.50;;;;;;5015484;28;87309;-80
2022/11/20 03:14:22;;;;;;;6.82;5.75;;;19.80;63.30;;;;;;5013196;28;87912;-80
2022/11/20 03:16:47;;;;;;;7.22;5.20;;;19.80;63.50;;;;;;5016209;28;88242;-80
2022/11/20 03:19:13;;;;;;;6.50;5.80;;;19.80;63.40;;;;;;5012924;28;87200;-81
2022/11/20 03:21:39;;;;;;;7.55;5.88;;;19.80;63.50;;;;;;5017694;28;87722;-81
2022/11/20 03:24:05;;;;;;;6.75;5.72;;;19.80;63.60;;;;;;5015225;27;87993;-80
2022/11/20 03:26:31;;;;;;;7.20;5.88;;;19.80;63.30;;;;;;4997843;28;91737;-80
2022/11/20 03:29:02;;;;;;;6.60;5.68;;;19.80;63.50;;;;;;5013469;28;88397;-80
2022/11/20 03:31:33;;;;;;;6.05;5.35;;;19.80;63.50;;;;;;5017575;28;87416;-80
2022/11/20 03:33:59;;;;;;;6.50;5.85;;;19.70;63.40;;;;;;5014752;28;87714;-80
2022/11/20 03:36:26;;;;;;;6.80;6.10;;;19.80;63.40;;;;;;5017450;28;87985;-80
2022/11/20 03:38:54;;;;;;;6.10;5.50;;;19.80;63.40;;;;;;5015560;27;87405;-80
2022/11/20 03:41:28;;;;;;;6.90;5.68;;;19.80;63.40;;;;;;5014634;28;87534;-80
2022/11/20 03:43:56;;;;;;;7.28;5.80;;;19.80;63.40;;;;;;5016371;28;88114;-80
2022/11/20 03:46:22;;;;;;;6.93;6.00;;;19.70;63.40;;;;;;5014844;28;88064;-80
2022/11/20 03:48:48;;;;;;;7.10;5.70;;;19.70;63.40;;;;;;5013654;28;87481;-80
2022/11/20 03:51:16;;;;;;;6.47;5.30;;;19.70;63.40;;;;;;5014807;28;87232;-80
2022/11/20 03:53:44;;;;;;;5.68;5.10;;;19.70;63.40;;;;;;5011474;27;88513;-80
2022/11/20 03:56:10;;;;;;;5.50;4.95;;;19.70;63.40;;;;;;5013623;28;89955;-81
2022/11/20 03:58:40;;;;;;;6.45;5.75;;;19.70;63.50;;;;;;5016340;28;87205;-80
2022/11/20 04:01:27;;;;;;;6.47;5.43;;;19.70;63.40;;;;;;5011056;28;87200;-80
2022/11/20 04:03:55;;;;;;;6.32;5.15;;;19.60;63.30;;;;;;5013339;28;91750;-80
2022/11/20 04:06:23;;;;;;;5.65;5.00;;;19.70;63.50;;;;;;5011191;27;88109;-80
2022/11/20 04:08:49;;;;;;;5.68;5.07;;;19.70;63.20;;;;;;5012765;28;87542;-80
2022/11/20 04:11:24;;;;;;;6.18;5.55;;;19.60;63.20;;;;;;5017530;28;86713;-80
2022/11/20 04:13:52;;;;;;;6.30;5.35;;;19.70;63.10;;;;;;5014389;28;89060;-81
2022/11/20 04:16:18;;;;;;;5.60;5.00;;;19.60;63.20;;;;;;5014350;28;87773;-80
2022/11/20 04:18:44;;;;;;;6.07;5.47;;;19.60;63.20;;;;;;5012266;28;88305;-81
2022/11/20 04:21:10;;;;;;;6.13;5.50;;;19.60;63.30;;;;;;5014649;27;87273;-80
2022/11/20 04:23:36;;;;;;;6.30;5.70;;;19.60;63.20;;;;;;5012178;28;88337;-80
2022/11/20 04:26:07;;;;;;;6.03;5.43;;;19.60;63.20;;;;;;5011941;28;87367;-80
2022/11/20 04:28:33;;;;;;;6.43;5.78;;;19.60;63.30;;;;;;5010945;28;87552;-80
2022/11/20 04:31:06;;;;;;;6.20;5.25;;;19.60;63.20;;;;;;5010737;28;87484;-80
2022/11/20 04:33:32;;;;;;;6.07;5.47;;;19.60;63.20;;;;;;5016082;28;87745;-80
2022/11/20 04:36:04;;;;;;;5.97;5.38;;;19.60;63.20;;;;;;5012502;27;88482;-80
2022/11/20 04:38:29;;;;;;;6.57;5.88;;;19.50;63.10;;;;;;5013164;28;87456;-80
2022/11/20 04:41:01;;;;;;;5.65;5.05;;;19.60;63.30;;;;;;5016440;28;86916;-81
2022/11/20 04:43:27;;;;;;;6.72;5.18;;;19.50;63.20;;;;;;5014157;28;91056;-80
2022/11/20 04:45:54;;;;;;;5.70;5.07;;;19.50;63.20;;;;;;5013165;28;90024;-80
2022/11/20 04:48:20;;;;;;;6.60;5.07;;;19.50;63.20;;;;;;5013672;27;87414;-80
2022/11/20 04:50:45;;;;;;;5.85;5.25;;;19.50;63.10;;;;;;5011353;28;87389;-80
2022/11/20 04:53:11;;;;;;;6.13;5.63;;;19.50;63.20;;;;;;5013866;28;87977;-81
2022/11/20 04:55:37;;;;;;;5.70;5.15;;;19.50;63.10;;;;;;4998302;28;91523;-80
2022/11/20 04:58:02;;;;;;;6.00;5.40;;;19.50;63.20;;;;;;5012106;28;87503;-81
2022/11/20 05:00:28;;;;;;;6.03;5.43;;;19.50;63.20;;;;;;5011863;28;86740;-80
2022/11/20 05:02:53;;;;;;;6.75;5.35;;;19.40;63.20;;;;;;5010980;27;88838;-80
2022/11/20 05:05:19;;;;;;;6.57;5.50;;;19.50;63.30;;;;;;5012710;28;87948;-80
2022/11/20 05:07:44;;;;;;;7.32;5.72;;;19.50;63.30;;;;;;5010643;28;88407;-80
2022/11/20 05:10:10;;;;;;;5.45;4.85;;;19.40;63.30;;;;;;5017150;28;87254;-80
2022/11/20 05:12:36;;;;;;;5.70;5.10;;;19.40;63.30;;;;;;5016119;28;89023;-80
2022/11/20 05:15:01;;;;;;;6.25;5.38;;;19.40;63.30;;;;;;5016300;28;87541;-80
2022/11/20 05:17:27;;;;;;;6.03;5.43;;;19.40;63.20;;;;;;5015726;27;87759;-80
2022/11/20 05:19:52;;;;;;;6.22;5.63;;;19.40;63.00;;;;;;5014178;28;87566;-80
2022/11/20 05:22:18;;;;;;;6.43;5.82;;;19.50;63.10;;;;;;5009547;28;88023;-80
2022/11/20 05:24:43;;;;;;;5.65;5.13;;;19.40;63.20;;;;;;5009419;28;87892;-80
2022/11/20 05:27:09;;;;;;;6.13;5.53;;;19.40;63.00;;;;;;5012850;28;87599;-80
2022/11/20 05:29:34;;;;;;;5.90;5.30;;;19.40;63.20;;;;;;5015659;28;87196;-80
2022/11/20 05:32:00;;;;;;;5.30;4.80;;;19.40;63.00;;;;;;5013470;27;89606;-80
2022/11/20 05:34:25;;;;;;;6.57;5.53;;;19.40;63.30;;;;;;5014479;28;88393;-80
2022/11/20 05:36:51;;;;;;;5.78;5.18;;;19.40;63.20;;;;;;5012190;28;86947;-81
2022/11/20 05:39:16;;;;;;;6.00;5.13;;;19.40;63.20;;;;;;5015433;28;87784;-81
2022/11/20 05:41:42;;;;;;;5.88;5.20;;;19.40;63.00;;;;;;5011660;28;89860;-80
2022/11/20 05:44:10;;;;;;;6.10;5.40;;;19.30;63.10;;;;;;5013377;27;89280;-80
2022/11/20 05:46:36;;;;;;;6.88;5.63;;;19.40;63.30;;;;;;5012953;28;87550;-81
2022/11/20 05:49:01;;;;;;;6.13;5.53;;;19.30;63.10;;;;;;5013278;28;87353;-80
2022/11/20 05:51:27;;;;;;;5.80;5.20;;;19.40;63.00;;;;;;5013027;28;88724;-80
2022/11/20 05:53:53;;;;;;;6.90;6.20;;;19.40;63.00;;;;;;5018092;28;87926;-80
2022/11/20 05:56:20;;;;;;;6.25;5.00;;;19.40;62.00;;;;;;5013554;28;88584;-80
2022/11/20 05:58:47;;;;;;;11.52;5.38;;;19.40;62.90;;;;;;5013583;27;87733;-83
2022/11/20 06:01:14;;;;;;;8.13;5.70;;;19.40;63.10;;;;;;5017175;28;87541;-81
2022/11/20 06:03:50;;;;;;;7.25;5.97;;;19.50;60.40;;;;;;5020091;28;87626;-83
2022/11/20 06:06:17;;;;;;;8.45;6.05;;;19.60;59.70;;;;;;5019453;28;87224;-84
2022/11/20 06:08:44;;;;;;;8.32;6.00;;;19.60;60.20;;;;;;5017293;28;86983;-83
2022/11/20 06:11:12;;;;;;;8.48;5.97;;;19.70;60.40;;;;;;5019694;28;88891;-83
2022/11/20 06:13:37;;;;;;;6.80;6.20;;;19.70;60.40;;;;;;5020214;27;88347;-84
2022/11/20 06:16:03;;;;;;;7.50;6.20;;;19.70;60.40;;;;;;5017495;28;87426;-84
2022/11/20 06:18:29;;;;;;;5.97;5.38;;;19.70;60.70;;;;;;5022573;28;87599;-83
2022/11/20 06:21:19;;;;;;;9.18;6.53;;;19.70;60.70;;;;;;4999918;28;91641;-82
2022/11/20 06:23:46;;;;;;;8.70;6.32;;;19.70;60.50;;;;;;5015876;28;89665;-82
2022/11/20 06:26:14;;;;;;;24.02;6.45;;;19.70;60.70;;;;;;5008202;28;87753;-80
2022/11/20 06:28:40;;;;;;;17.63;7.43;;;19.70;61.10;;;;;;5009712;28;88240;-81
2022/11/20 06:31:07;;;;;;;8.07;6.25;;;19.60;60.40;;;;;;5014409;28;89475;-80
2022/11/20 06:33:33;;;;;;;8.75;6.63;;;19.50;61.90;;;;;;5015947;27;87814;-81
2022/11/20 06:36:00;;;;;;;9.98;6.60;;;19.40;62.10;;;;;;5018564;28;87349;-80
2022/11/20 06:38:26;;;;;;;12.85;6.78;;;19.30;62.30;;;;;;5017800;28;86908;-80
2022/11/20 06:40:52;;;;;;;7.80;6.43;;;19.30;62.00;;;;;;5013166;27;87433;-80
2022/11/20 06:43:18;;;;;;;7.40;6.60;;;19.30;62.10;;;;;;5017984;28;88152;-80
2022/11/20 06:45:43;;;;;;;7.97;6.60;;;19.30;62.20;;;;;;5016760;28;88070;-80
2022/11/20 06:48:09;;;;;;;7.93;6.18;;;19.30;62.30;;;;;;5015891;28;87362;-79
2022/11/20 06:50:36;;;;;;;10.20;6.80;;;19.20;62.30;;;;;;5014966;28;87615;-80
2022/11/20 06:53:03;;;;;;;6.95;6.25;;;19.20;62.40;;;;;;5014167;28;87389;-80
2022/11/20 06:55:29;;;;;;;11.00;7.35;;;19.20;62.60;;;;;;4998898;28;87400;-80
2022/11/20 06:57:54;;;;;;;10.65;6.82;;;19.20;62.30;;;;;;5013165;28;86978;-79
2022/11/20 07:00:20;;;;;;;8.05;6.03;;;19.20;62.50;;;;;;5013158;28;88145;-80
2022/11/20 07:02:45;;;;;;;10.23;7.47;;;19.20;62.40;;;;;;5015011;28;88965;-79
2022/11/20 07:05:11;;;;;;;7.78;6.50;;;19.20;62.60;;;;;;5012220;28;87453;-79
2022/11/20 07:07:37;;;;;;;7.65;6.85;;;19.10;62.60;;;;;;5019540;28;87888;-80
2022/11/20 07:10:02;;;;;;;8.00;6.70;;;19.20;62.60;;;;;;5012913;27;89268;-79
2022/11/20 07:12:28;;;;;;;7.80;7.00;;;19.10;62.50;;;;;;5014596;28;89067;-80
2022/11/20 07:14:54;;;;;;;9.02;6.95;;;19.10;62.50;;;;;;4981016;28;87972;-80
2022/11/20 07:17:19;;;;;;;7.82;6.65;;;19.20;62.20;;;;;;5016934;28;87312;-80
2022/11/20 07:19:45;;;;;;;8.60;6.82;;;19.20;62.20;;;;;;5025655;27;94450;-80
2022/11/20 07:22:10;;;;;;;9.77;6.68;;;19.10;62.30;;;;;;5029977;27;88243;-80
2022/11/20 07:24:36;;;;;;;8.15;6.95;;;19.20;62.30;;;;;;5023818;27;86974;-80
2022/11/20 07:27:01;;;;;;;11.20;7.70;;;19.30;62.20;;;;;;5017872;28;86367;-79
2022/11/20 07:29:27;;;;;;;22.52;9.60;;;19.20;62.20;;;;;;5029905;27;88659;-80
2022/11/20 07:31:52;;;;;;;30.85;11.35;;;19.20;62.60;;;;;;5035167;27;88412;-80
2022/11/20 07:34:19;;;;;;;38.67;12.07;;;19.20;62.70;;;;;;5033424;27;88258;-79
2022/11/20 07:36:45;;;;;;;33.45;11.43;;;19.40;62.40;;;;;;5032218;27;87514;-80
2022/11/20 07:39:10;;;;;;;30.75;11.57;;;19.40;62.40;;;;;;5037129;27;88213;-80
2022/11/20 07:41:36;;;;;;;24.95;11.30;;;19.40;62.20;;;;;;5009384;27;89671;-80
2022/11/20 07:44:01;;;;;;;29.98;11.98;;;19.50;62.20;;;;;;5013163;27;87943;-80
2022/11/20 07:46:27;;;;;;;34.20;11.73;;;19.50;62.50;;;;;;5012167;28;87191;-80
2022/11/20 07:48:53;;;;;;;31.45;10.63;;;19.60;62.10;;;;;;5012918;28;88913;-80
2022/11/20 07:51:18;;;;;;;29.38;10.68;;;19.80;62.20;;;;;;5018810;27;87294;-80
2022/11/20 07:53:44;;;;;;;22.77;10.98;;;19.90;62.00;;;;;;5016619;28;87070;-80
2022/11/20 07:56:09;;;;;;;33.15;11.50;;;20.00;61.90;;;;;;5008782;28;88251;-79
2022/11/20 07:58:35;;;;;;;25.15;10.98;;;20.20;61.40;;;;;;5014582;28;89246;-80
2022/11/20 08:01:05;;;;;;;22.60;10.80;;;20.30;61.40;;;;;;5014344;28;88751;-80
2022/11/20 08:03:31;;;;;;;24.55;10.70;;;20.30;61.20;;;;;;5011413;28;87373;-80
2022/11/20 08:06:00;;;;;;;30.42;10.73;;;20.30;60.80;;;;;;5014940;27;87479;-80
2022/11/20 08:08:27;;;;;;;26.27;9.73;;;20.40;61.00;;;;;;4957598;28;88088;-80
2022/11/20 08:14:11;;;;;;;22.98;11.02;;;20.40;60.90;;;;;;5012610;28;87764;-80
2022/11/20 08:16:22;;;;;;;26.38;9.93;;;20.30;60.90;;;;;;5011432;28;86459;-80
2022/11/20 08:18:48;;;;;;;29.02;10.15;;;20.40;60.80;;;;;;5015739;27;88148;-80
2022/11/20 08:21:14;;;;;;;25.83;10.45;;;20.40;60.60;;;;;;5013496;28;88417;-80
2022/11/20 08:23:39;;;;;;;23.58;10.35;;;20.30;60.70;;;;;;5016414;28;89209;-80
2022/11/20 08:26:05;;;;;;;23.77;10.52;;;20.20;61.10;;;;;;5021196;27;95301;-80
2022/11/20 08:28:30;;;;;;;33.40;11.10;;;20.10;61.50;;;;;;5032362;27;88393;-80
2022/11/20 08:31:00;;;;;;;28.23;10.95;;;20.10;61.70;;;;;;5030178;27;87324;-80
2022/11/20 08:33:26;;;;;;;21.13;9.55;;;20.00;61.90;;;;;;5033562;27;87405;-80
2022/11/20 08:35:51;;;;;;;25.67;10.98;;;20.10;62.10;;;;;;5030556;27;87650;-80
2022/11/20 08:38:17;;;;;;;29.10;10.00;;;20.00;61.90;;;;;;5027407;27;88360;-80
2022/11/20 08:41:23;;;;;;;29.83;10.38;;;20.00;62.10;;;;;;5026385;27;87816;-80
2022/11/20 08:43:28;;;;;;;28.00;10.95;;;20.00;62.10;;;;;;5009458;28;92851;-80
2022/11/20 08:45:56;;;;;;;24.63;10.23;;;20.00;62.30;;;;;;5012786;28;87288;-80
2022/11/20 08:48:22;;;;;;;24.55;10.50;;;20.00;62.30;;;;;;5012657;28;89398;-80
2022/11/20 08:50:47;;;;;;;25.23;10.40;;;20.00;62.30;;;;;;5012328;28;89326;-80
2022/11/20 08:53:13;;;;;;;19.50;10.35;;;20.00;62.30;;;;;;5016198;28;87336;-80
2022/11/20 08:55:39;;;;;;;29.38;11.25;;;20.10;62.30;;;;;;4992243;28;88743;-80
2022/11/20 08:58:05;;;;;;;28.75;10.82;;;20.10;62.30;;;;;;5014756;27;87489;-81
2022/11/20 09:00:32;;;;;;;30.60;14.15;;;20.10;62.30;;;;;;5025105;28;89500;-82
2022/11/20 09:02:58;;;;;;;33.72;12.52;;;20.10;60.00;;;;;;5030110;27;87656;-80
2022/11/20 09:05:24;;;;;;;35.22;16.23;;;20.10;60.50;;;;;;5025032;27;87068;-81
2022/11/20 09:07:49;;;;;;;37.17;15.02;;;20.10;57.80;;;;;;5016628;28;87984;-80
2022/11/20 09:10:15;;;;;;;30.70;12.50;;;20.10;59.10;;;;;;4995018;28;89803;-81
2022/11/20 09:12:41;;;;;;;26.67;12.57;;;20.10;60.00;;;;;;5014654;28;87883;-81
2022/11/20 09:15:07;;;;;;;30.65;13.15;;;20.10;60.30;;;;;;4994263;28;87561;-80
2022/11/20 09:17:33;;;;;;;26.88;12.75;;;20.10;60.30;;;;;;5012957;28;88916;-81
2022/11/20 09:19:58;;;;;;;30.90;12.10;;;20.20;60.10;;;;;;5012710;28;88393;-81
2022/11/20 09:22:24;;;;;;;30.13;12.60;;;20.20;60.30;;;;;;5014487;28;87499;-80
2022/11/20 09:24:50;;;;;;;26.58;12.57;;;20.20;60.30;;;;;;5012237;28;87143;-81
2022/11/20 09:27:20;;;;;;;22.90;10.35;;;20.30;60.20;;;;;;5022213;28;88192;-81
2022/11/20 09:29:46;;;;;;;28.55;12.60;;;20.40;60.00;;;;;;5010996;28;91085;-81
2022/11/20 09:32:11;;;;;;;22.85;11.30;;;20.50;59.80;;;;;;5011907;28;87119;-80
2022/11/20 09:34:37;;;;;;;26.38;11.30;;;20.60;59.90;;;;;;5015115;28;87106;-80
2022/11/20 09:37:02;;;;;;;27.55;12.52;;;20.70;59.60;;;;;;4991853;28;91031;-81
2022/11/20 09:39:28;;;;;;;20.30;11.00;;;20.80;59.50;;;;;;5012768;28;87072;-80
2022/11/20 09:42:14;;;;;;;36.60;14.35;;;20.80;59.40;;;;;;5010608;28;87599;-80
2022/11/20 09:45:13;;;;;;;26.83;12.70;;;20.70;58.50;;;;;;5013321;28;90373;-80
2022/11/20 09:47:51;;;;;;;31.77;12.93;;;20.70;58.70;;;;;;5009762;28;88528;-80
2022/11/20 09:50:34;;;;;;;23.83;12.65;;;20.70;59.70;;;;;;5015369;28;88029;-80
2022/11/20 09:53:02;;;;;;;27.92;12.13;;;20.60;59.50;;;;;;5014883;28;87674;-80
2022/11/20 09:55:30;;;;;;;27.17;13.18;;;20.60;59.80;;;;;;5011487;28;88059;-81
2022/11/20 09:57:58;;;;;;;31.92;13.00;;;20.60;59.80;;;;;;5014740;28;88149;-80
2022/11/20 10:00:24;;;;;;;26.52;15.60;;;20.50;59.60;;;;;;5013479;28;87675;-80
2022/11/20 10:03:12;;;;;;;26.00;14.43;;;20.50;58.80;;;;;;5011379;28;88151;-80
2022/11/20 10:05:43;;;;;;;29.75;14.15;;;20.40;58.20;;;;;;4932594;28;87170;-80
2022/11/20 10:08:34;;;;;;;27.95;14.43;;;20.40;58.40;;;;;;4934311;28;87624;-81
2022/11/20 10:11:29;;;;;;;24.85;13.25;;;20.30;58.40;;;;;;4932802;28;87533;-80
2022/11/20 10:14:32;;;;;;;24.50;12.25;;;20.40;58.50;;;;;;4936179;28;87651;-80
2022/11/20 10:17:27;;;;;;;22.77;12.23;;;20.50;58.50;;;;;;4936123;28;88377;-81
2022/11/20 10:19:55;;;;;;;24.35;16.02;;;20.50;58.60;;;;;;4935794;28;87783;-81
2022/11/20 10:22:40;;;;;;;25.23;15.73;;;20.50;56.80;;;;;;4917033;28;89744;-81
2022/11/20 10:25:13;;;;;;;26.80;15.35;;;20.50;55.40;;;;;;4932973;28;87138;-81
2022/11/20 10:28:12;;;;;;;25.15;15.18;;;20.50;55.60;;;;;;4957413;28;91137;-82
2022/11/20 10:30:43;;;;;;;30.30;16.95;;;20.50;55.50;;;;;;4952968;28;93820;-81
2022/11/20 10:33:17;;;;;;;28.30;15.75;;;20.50;55.20;;;;;;4953415;28;89264;-81
2022/11/20 10:35:45;;;;;;;28.88;15.65;;;20.50;55.00;;;;;;4957157;28;87466;-81
2022/11/20 10:38:23;;;;;;;25.52;14.98;;;20.60;55.70;;;;;;4953861;28;87724;-81
2022/11/20 10:41:24;;;;;;;27.77;16.20;;;20.50;54.10;;;;;;4956745;28;88762;-80
2022/11/20 10:43:40;;;;;;;27.63;15.77;;;20.50;54.50;;;;;;5019389;27;88246;-81
2022/11/20 10:46:14;;;;;;;25.92;13.82;;;20.50;56.20;;;;;;5021066;28;87278;-81
2022/11/20 10:48:42;;;;;;;33.60;17.95;;;20.50;56.70;;;;;;5035426;27;91411;-81
2022/11/20 10:51:28;;;;;;;37.40;20.67;;;20.50;56.20;;;;;;5024218;27;88186;-81
2022/11/20 10:54:21;;;;;;;42.58;21.20;;;20.50;55.60;;;;;;5016639;28;87140;-81
2022/11/20 10:56:51;;;;;;;37.83;20.05;;;20.50;55.80;;;;;;5016338;28;88477;-82
2022/11/20 10:59:17;;;;;;;;;;;20.50;55.70;;;;;;5016399;28;87592;-82
2022/11/20 11:01:43;;;;;;;33.22;18.30;;;20.50;55.40;;;;;;5001424;28;89329;-80
2022/11/20 11:04:32;;;;;;;31.75;19.35;;;20.50;57.00;;;;;;5017597;28;87457;-81
2022/11/20 11:07:07;;;;;;;;;;;20.50;56.00;;;;;;5018046;28;88220;-81
2022/11/20 11:09:38;;;;;;;33.47;19.17;;;20.50;56.10;;;;;;5018940;28;88100;-81
2022/11/20 11:12:09;;;;;;;27.65;16.65;;;20.50;56.10;;;;;;5016043;28;88343;-81
2022/11/20 11:14:46;;;;;;;31.88;18.27;;;20.50;55.30;;;;;;5015900;28;88187;-81
2022/11/20 11:17:22;;;;;;;25.67;16.50;;;20.50;55.40;;;;;;5018493;28;87293;-82
2022/11/20 11:20:16;;;;;;;27.90;16.00;;;20.40;55.30;;;;;;5018564;27;87379;-82
2022/11/20 11:22:52;;;;;;;23.40;15.68;;;20.40;55.30;;;;;;5017819;28;89330;-82
2022/11/20 11:25:30;;;;;;;27.58;16.77;;;20.40;54.50;;;;;;5015347;28;89153;-82
2022/11/20 11:27:59;;;;;;;22.95;15.32;;;20.50;56.40;;;;;;5000947;28;87633;-81
2022/11/20 11:30:26;;;;;;;24.83;14.48;;;20.60;56.80;;;;;;5016340;27;87663;-81
2022/11/20 11:33:06;;;;;;;25.23;15.55;;;20.60;56.70;;;;;;5017810;28;88207;-81
2022/11/20 11:35:33;;;;;;;23.70;15.27;;;20.60;56.50;;;;;;5017616;28;87883;-80
2022/11/20 11:38:07;;;;;;;22.98;15.20;;;20.50;55.00;;;;;;5015920;28;87562;-81
2022/11/20 11:40:37;;;;;;;21.73;14.38;;;20.50;56.00;;;;;;5016834;28;86939;-81
2022/11/20 11:46:25;;;;;;;24.60;13.30;;;20.50;56.50;;;;;;5016075;28;91327;-82
2022/11/20 11:49:00;;;;;;;21.20;13.35;;;20.50;56.80;;;;;;5032822;27;88513;-80
2022/11/20 11:51:59;;;;;;;25.20;13.82;;;20.60;56.70;;;;;;5017933;27;87871;-80
2022/11/20 11:54:40;;;;;;;20.77;12.93;;;20.60;56.40;;;;;;4905539;28;89092;-80
2022/11/20 11:57:16;;;;;;;23.67;13.13;;;20.70;56.80;;;;;;4905471;28;87539;-81
2022/11/20 12:00:00;;;;;;;22.02;13.05;;;20.70;56.90;;;;;;4905424;28;87105;-80
2022/11/20 12:02:44;;;;;;;21.02;12.25;;;20.70;57.10;;;;;;4905529;28;87836;-81
2022/11/20 12:05:23;;;;;;;19.88;12.23;;;20.70;57.70;;;;;;4905910;28;88204;-80
2022/11/20 12:08:13;;;;;;;22.15;12.13;;;20.70;57.90;;;;;;4889362;28;90012;-80
2022/11/20 12:10:55;;;;;;;19.95;12.15;;;20.60;58.30;;;;;;4893951;28;87391;-80
2022/11/20 12:13:53;;;;;;;23.83;12.95;;;20.60;58.70;;;;;;4924564;28;87301;-81
2022/11/20 12:16:20;;;;;;;16.55;11.27;;;20.60;59.20;;;;;;4924181;28;90097;-81
2022/11/20 12:18:49;;;;;;;18.70;11.93;;;20.70;59.20;;;;;;4925887;28;88177;-80
2022/11/20 12:21:23;;;;;;;22.23;11.95;;;20.70;58.80;;;;;;4924651;28;87073;-81
2022/11/20 12:24:00;;;;;;;24.42;12.60;;;20.70;58.90;;;;;;4924729;28;87881;-81
2022/11/20 12:26:44;;;;;;;18.40;11.65;;;20.70;59.10;;;;;;4924579;28;88485;-81
2022/11/20 12:29:10;;;;;;;20.75;11.55;;;20.60;59.20;;;;;;4924997;28;88266;-81
2022/11/20 12:32:12;;;;;;;21.48;10.45;;;20.60;59.20;;;;;;4950319;28;87017;-81
2022/11/20 12:34:56;;;;;;;19.10;11.60;;;20.70;58.90;;;;;;4964121;28;87336;-81
2022/11/20 12:37:50;;;;;;;18.17;10.82;;;20.70;58.90;;;;;;4964576;28;88161;-83
2022/11/20 12:40:52;;;;;;;19.63;10.55;;;20.60;58.80;;;;;;4964235;28;87458;-81
2022/11/20 12:46:44;;;;;;;25.75;10.93;;;20.80;59.10;;;;;;4965462;28;87385;-81
2022/11/20 12:49:26;;;;;;;16.92;10.05;;;20.80;58.90;;;;;;5036816;27;92252;-81
2022/11/20 12:51:52;;;;;;;17.42;10.90;;;20.70;59.20;;;;;;5034741;27;87803;-81
2022/11/20 12:54:35;;;;;;;19.52;10.98;;;20.70;59.30;;;;;;5000410;28;87312;-81
2022/11/20 12:57:10;;;;;;;16.30;10.50;;;20.60;59.30;;;;;;5016336;28;86964;-81
2022/11/20 13:00:07;;;;;;;19.80;10.70;;;20.60;59.50;;;;;;5017346;28;89295;-81
2022/11/20 13:02:58;;;;;;;15.98;9.55;;;20.60;59.50;;;;;;5013178;28;87438;-81
2022/11/20 13:05:45;;;;;;;17.27;9.90;;;20.60;59.60;;;;;;5014856;28;87223;-81
2022/11/20 13:08:41;;;;;;;17.58;10.10;;;20.60;59.50;;;;;;5015003;27;88318;-81